createdAt,value
2019-06-20T00:01:51.251Z,57.00
2019-06-20T00:04:20.266Z,57.40
2019-06-20T00:06:49.136Z,56.90
2019-06-20T00:09:18.100Z,56.20
2019-06-20T00:11:46.948Z,56.30
2019-06-20T00:14:15.878Z,56.00
2019-06-20T00:16:44.797Z,56.00
2019-06-20T00:19:13.762Z,56.00
2019-06-20T00:21:42.632Z,56.20
2019-06-20T00:24:11.546Z,55.70
2019-06-20T00:26:40.427Z,55.70
2019-06-20T00:29:09.344Z,56.00
2019-06-20T00:31:38.208Z,56.00
2019-06-20T00:34:07.131Z,56.00
2019-06-20T00:36:36.019Z,55.70
2019-06-20T00:39:07.431Z,55.40
2019-06-20T00:41:36.491Z,55.10
2019-06-20T00:44:05.615Z,55.00
2019-06-20T00:46:34.492Z,55.00
2019-06-20T00:49:03.402Z,55.00
2019-06-20T00:51:32.388Z,55.40
2019-06-20T00:54:01.248Z,55.30
2019-06-20T00:56:30.168Z,55.60
2019-06-20T00:58:59.029Z,55.30
2019-06-20T01:01:27.966Z,55.30
2019-06-20T01:03:56.844Z,55.50
2019-06-20T01:06:25.787Z,55.80
2019-06-20T01:08:54.628Z,55.30
2019-06-20T01:11:23.570Z,55.00
2019-06-20T01:13:52.975Z,54.80
2019-06-20T01:16:22.071Z,54.70
2019-06-20T01:18:50.965Z,54.50
2019-06-20T01:21:19.963Z,54.20
2019-06-20T01:23:48.842Z,53.90
2019-06-20T01:26:17.745Z,53.90
2019-06-20T01:28:46.619Z,53.60
2019-06-20T01:31:15.528Z,53.70
2019-06-20T01:33:44.401Z,53.40
2019-06-20T01:36:13.424Z,53.30
2019-06-20T01:38:42.291Z,53.40
2019-06-20T01:41:11.212Z,53.20
2019-06-20T01:43:50.167Z,53.30
2019-06-20T01:46:10.647Z,53.50
2019-06-20T01:48:39.511Z,53.50
2019-06-20T01:51:08.425Z,54.00
2019-06-20T01:53:37.305Z,54.00
2019-06-20T01:56:06.216Z,55.00
2019-06-20T01:58:35.092Z,55.80
2019-06-20T02:01:04.029Z,57.00
2019-06-20T02:03:33.005Z,56.30
2019-06-20T02:06:01.920Z,57.00
2019-06-20T02:08:30.797Z,56.30
2019-06-20T02:10:59.708Z,55.30
2019-06-20T02:13:28.588Z,56.80
2019-06-20T02:15:57.492Z,56.40
2019-06-20T02:18:26.382Z,57.70
2019-06-20T02:20:57.932Z,57.30
2019-06-20T02:23:26.801Z,57.80
2019-06-20T02:25:55.762Z,58.00
2019-06-20T02:28:24.940Z,59.20
2019-06-20T02:30:53.849Z,60.60
2019-06-20T02:33:22.758Z,59.80
2019-06-20T02:35:51.636Z,59.90
2019-06-20T02:38:20.508Z,59.20
2019-06-20T02:40:49.391Z,59.80
2019-06-20T02:43:18.495Z,61.80
2019-06-20T02:45:47.376Z,59.70
2019-06-20T02:48:16.286Z,60.80
2019-06-20T02:50:45.165Z,60.80
2019-06-20T02:53:14.060Z,60.10
2019-06-20T02:55:42.937Z,61.50
2019-06-20T02:58:11.847Z,62.00
2019-06-20T03:00:55.459Z,61.90
2019-06-20T03:03:24.665Z,62.60
2019-06-20T03:05:53.650Z,63.40
2019-06-20T03:08:22.554Z,64.10
2019-06-20T03:10:51.438Z,63.80
2019-06-20T03:13:20.477Z,62.50
2019-06-20T03:15:50.175Z,62.40
2019-06-20T03:18:19.272Z,62.80
2019-06-20T03:20:48.190Z,63.30
2019-06-20T03:23:17.078Z,62.90
2019-06-20T03:25:45.942Z,62.60
2019-06-20T03:28:14.851Z,61.80
2019-06-20T03:30:43.731Z,61.70
2019-06-20T03:33:12.655Z,61.80
2019-06-20T03:35:41.619Z,62.20
2019-06-20T03:38:10.529Z,63.40
2019-06-20T03:40:39.414Z,63.90
2019-06-20T03:43:08.324Z,63.10
2019-06-20T03:45:37.192Z,63.20
2019-06-20T03:48:06.265Z,63.50
2019-06-20T03:50:35.176Z,63.20
2019-06-20T03:53:04.099Z,64.00
2019-06-20T03:55:33.480Z,64.40
2019-06-20T03:58:02.904Z,64.40
2019-06-20T04:00:34.477Z,64.50
2019-06-20T04:03:03.916Z,65.00
2019-06-20T04:05:32.762Z,65.30
2019-06-20T04:08:01.683Z,64.80
2019-06-20T04:10:30.556Z,64.80
2019-06-20T04:12:59.469Z,64.00
2019-06-20T04:15:28.350Z,64.60
2019-06-20T04:17:57.273Z,64.10
2019-06-20T04:20:26.132Z,64.00
2019-06-20T04:22:55.082Z,65.00
2019-06-20T04:25:23.940Z,64.80
2019-06-20T04:27:52.862Z,65.10
2019-06-20T04:30:22.714Z,63.70
2019-06-20T04:32:51.642Z,63.60
2019-06-20T04:35:20.514Z,63.50
2019-06-20T04:37:49.536Z,64.30
2019-06-20T04:40:18.611Z,62.90
2019-06-20T04:42:47.530Z,63.90
2019-06-20T04:45:34.163Z,63.90
2019-06-20T04:47:51.303Z,64.90
2019-06-20T04:50:20.165Z,64.50
2019-06-20T04:52:49.045Z,64.80
2019-06-20T04:55:17.959Z,64.60
2019-06-20T04:57:46.832Z,64.50
2019-06-20T05:00:15.754Z,64.60
2019-06-20T05:02:44.634Z,64.90
2019-06-20T05:05:13.891Z,64.40
2019-06-20T05:07:42.927Z,65.70
2019-06-20T05:10:12.436Z,64.50
2019-06-20T05:12:41.327Z,65.30
2019-06-20T05:15:10.451Z,64.10
2019-06-20T05:17:39.313Z,64.00
2019-06-20T05:20:08.743Z,63.70
2019-06-20T05:22:37.611Z,63.60
2019-06-20T05:25:06.944Z,62.40
2019-06-20T05:27:35.825Z,62.30
2019-06-20T05:30:10.311Z,62.70
2019-06-20T05:32:39.284Z,61.90
2019-06-20T05:35:09.200Z,61.60
2019-06-20T05:37:38.066Z,61.40
2019-06-20T05:40:08.473Z,60.90
2019-06-20T05:42:37.359Z,60.90
2019-06-20T05:45:07.945Z,61.20
2019-06-20T05:47:36.824Z,60.80
2019-06-20T05:50:08.331Z,60.80
2019-06-20T05:52:37.217Z,60.00
2019-06-20T05:55:09.142Z,60.10
2019-06-20T05:57:38.029Z,59.70
2019-06-20T06:00:08.812Z,58.80
2019-06-20T06:02:37.904Z,58.70
2019-06-20T06:05:07.125Z,58.30
2019-06-20T06:07:35.994Z,57.40
2019-06-20T06:10:09.270Z,58.20
2019-06-20T06:12:38.160Z,58.50
2019-06-20T06:15:07.870Z,59.00
2019-06-20T06:17:36.737Z,58.70
2019-06-20T06:20:08.032Z,58.40
2019-06-20T06:22:36.958Z,57.70
2019-06-20T06:25:07.738Z,58.10
2019-06-20T06:27:37.565Z,57.30
2019-06-20T06:30:11.985Z,56.60
2019-06-20T06:32:41.342Z,56.20
2019-06-20T06:35:11.758Z,55.30
2019-06-20T06:37:41.408Z,54.50
2019-06-20T06:40:12.112Z,54.20
2019-06-20T06:42:41.083Z,54.40
2019-06-20T06:45:11.484Z,53.70
2019-06-20T06:47:40.362Z,53.70
2019-06-20T06:50:10.877Z,53.30
2019-06-20T06:52:40.055Z,52.80
2019-06-20T06:55:10.756Z,52.70
2019-06-20T06:57:39.700Z,52.80
2019-06-20T07:00:12.862Z,52.50
2019-06-20T07:02:41.747Z,52.30
2019-06-20T07:05:10.853Z,51.70
2019-06-20T07:07:39.827Z,50.50
2019-06-20T07:10:09.552Z,50.90
2019-06-20T07:12:38.456Z,51.70
2019-06-20T07:15:09.332Z,50.20
2019-06-20T07:17:38.208Z,50.50
2019-06-20T07:20:08.335Z,49.60
2019-06-20T07:22:37.740Z,49.90
2019-06-20T07:25:07.738Z,50.00
2019-06-20T07:27:36.847Z,50.60
2019-06-20T07:30:11.401Z,50.20
2019-06-20T07:32:40.838Z,49.50
2019-06-20T07:35:10.188Z,50.00
2019-06-20T07:37:39.107Z,50.20
2019-06-20T07:40:10.462Z,50.60
2019-06-20T07:42:39.589Z,49.90
2019-06-20T07:45:10.244Z,50.70
2019-06-20T07:47:39.681Z,51.00
2019-06-20T07:50:10.851Z,52.20
2019-06-20T07:52:40.057Z,53.30
2019-06-20T07:55:10.147Z,54.20
2019-06-20T07:57:39.625Z,54.30
2019-06-20T08:00:12.067Z,56.50
2019-06-20T08:02:41.149Z,58.30
2019-06-20T08:05:12.634Z,57.00
2019-06-20T08:07:41.617Z,59.30
2019-06-20T08:10:14.647Z,59.30
2019-06-20T08:12:42.725Z,59.80
2019-06-20T08:15:15.520Z,58.90
2019-06-20T08:17:43.600Z,57.70
2019-06-20T08:20:13.540Z,56.20
2019-06-20T08:22:42.465Z,56.80
2019-06-20T08:25:13.772Z,55.80
2019-06-20T08:27:55.978Z,56.50
2019-06-20T08:30:33.617Z,55.10
2019-06-20T08:33:08.723Z,56.60
2019-06-20T08:35:33.639Z,57.90
2019-06-20T08:38:03.590Z,57.30
2019-06-20T08:40:36.460Z,56.20
2019-06-20T08:43:06.299Z,56.30
2019-06-20T08:45:36.344Z,54.80
2019-06-20T08:48:05.373Z,54.10
2019-06-20T08:50:34.734Z,53.50
2019-06-20T08:53:03.938Z,51.00
2019-06-20T08:55:32.922Z,51.30
2019-06-20T08:58:03.294Z,50.80
2019-06-20T09:00:35.353Z,50.50
2019-06-20T09:03:05.601Z,49.80
2019-06-20T09:05:34.676Z,49.10
2019-06-20T09:10:37.933Z,46.40
2019-06-20T09:13:07.617Z,47.10
2019-06-20T09:15:37.090Z,47.70
2019-06-20T09:18:06.414Z,48.20
2019-06-20T09:20:35.587Z,47.90
2019-06-20T09:23:05.038Z,51.60
2019-06-20T09:25:34.148Z,52.40
2019-06-20T09:28:03.312Z,53.70
2019-06-20T09:30:32.322Z,53.80
2019-06-20T09:33:01.254Z,51.10
2019-06-20T09:35:30.133Z,49.70
2019-06-20T09:37:59.315Z,47.20
2019-06-20T09:40:28.718Z,45.90
2019-06-20T09:42:58.783Z,45.10
2019-06-20T09:45:27.835Z,47.20
2019-06-20T09:47:58.114Z,45.80
2019-06-20T09:50:28.271Z,46.00
2019-06-20T09:52:58.300Z,46.50
2019-06-20T09:55:27.385Z,45.90
2019-06-20T09:57:56.296Z,45.50
2019-06-20T10:00:27.370Z,45.40
2019-06-20T10:02:57.741Z,48.10
2019-06-20T10:05:27.082Z,47.30
2019-06-20T10:07:56.691Z,46.90
2019-06-20T10:10:31.064Z,45.60
2019-06-20T10:13:00.076Z,46.60
2019-06-20T10:15:33.807Z,48.70
2019-06-20T10:18:02.747Z,47.90
2019-06-20T10:20:32.011Z,47.40
2019-06-20T10:23:00.880Z,46.00
2019-06-20T10:25:29.797Z,45.80
2019-06-20T10:27:58.770Z,46.50
2019-06-20T10:30:28.023Z,45.70
2019-06-20T10:32:57.714Z,46.20
2019-06-20T10:35:27.135Z,46.20
2019-06-20T10:37:57.234Z,46.10
2019-06-20T10:40:26.837Z,46.50
2019-06-20T10:42:56.914Z,46.90
2019-06-20T10:45:27.163Z,46.70
2019-06-20T10:47:56.270Z,47.50
2019-06-20T10:50:25.438Z,49.30
2019-06-20T10:52:54.907Z,49.80
2019-06-20T10:55:23.937Z,47.70
2019-06-20T10:57:52.898Z,48.60
2019-06-20T11:00:31.347Z,48.00
2019-06-20T11:02:55.179Z,47.40
2019-06-20T11:05:24.570Z,47.50
2019-06-20T11:07:53.523Z,46.60
2019-06-20T11:10:24.112Z,44.50
2019-06-20T11:12:55.931Z,44.00
2019-06-20T11:15:23.629Z,44.70
2019-06-20T11:17:55.947Z,44.40
2019-06-20T11:20:24.535Z,44.40
2019-06-20T11:22:53.434Z,44.80
2019-06-20T11:25:22.547Z,44.60
2019-06-20T11:27:51.439Z,44.10
2019-06-20T11:30:44.809Z,45.20
2019-06-20T11:33:01.766Z,44.60
2019-06-20T11:35:30.677Z,44.50
2019-06-20T11:37:59.566Z,43.60
2019-06-20T11:40:28.589Z,44.60
2019-06-20T11:42:57.505Z,43.30
2019-06-20T11:45:26.588Z,44.90
2019-06-20T11:47:55.563Z,43.10
2019-06-20T11:50:24.571Z,43.80
2019-06-20T11:52:53.453Z,43.60
2019-06-20T11:55:22.470Z,43.30
2019-06-20T11:57:51.336Z,42.30
2019-06-20T12:00:21.151Z,41.90
2019-06-20T12:02:50.351Z,42.20
2019-06-20T12:05:19.642Z,42.30
2019-06-20T12:07:49.909Z,44.00
2019-06-20T12:10:19.539Z,44.00
2019-06-20T12:12:49.186Z,44.90
2019-06-20T12:15:18.831Z,45.00
2019-06-20T12:17:49.145Z,44.80
2019-06-20T12:20:18.864Z,45.30
2019-06-20T12:22:50.523Z,46.30
2019-06-20T12:25:18.902Z,46.40
2019-06-20T12:27:51.350Z,47.30
2019-06-20T12:30:23.092Z,47.60
2019-06-20T12:32:57.400Z,48.00
2019-06-20T12:35:26.745Z,46.80
2019-06-20T12:37:55.966Z,46.30
2019-06-20T12:40:25.358Z,44.10
2019-06-20T12:42:54.616Z,44.20
2019-06-20T12:45:23.942Z,45.50
2019-06-20T12:47:53.145Z,43.70
2019-06-20T12:50:22.145Z,43.90
2019-06-20T12:52:52.717Z,42.50
2019-06-20T12:55:27.533Z,43.60
2019-06-20T12:57:56.957Z,45.00
2019-06-20T13:00:27.519Z,44.90
2019-06-20T13:02:58.156Z,45.30
2019-06-20T13:05:41.462Z,45.40
2019-06-20T13:08:09.957Z,46.10
2019-06-20T13:10:40.356Z,48.30
2019-06-20T13:13:09.458Z,48.50
2019-06-20T13:15:39.105Z,48.70
2019-06-20T13:18:08.924Z,49.80
2019-06-20T13:20:39.422Z,49.70
2019-06-20T13:23:08.378Z,49.90
2019-06-20T13:25:37.757Z,49.80
2019-06-20T13:28:07.842Z,50.10
2019-06-20T13:30:36.737Z,50.40
2019-06-20T13:33:05.649Z,51.20
2019-06-20T13:35:34.528Z,51.70
2019-06-20T13:38:03.462Z,51.90
2019-06-20T13:40:32.318Z,53.30
2019-06-20T13:43:01.241Z,53.60
2019-06-20T13:45:30.130Z,54.30
2019-06-20T13:47:59.033Z,53.50
2019-06-20T13:50:28.220Z,54.50
2019-06-20T13:52:57.130Z,54.70
2019-06-20T13:55:25.998Z,55.10
2019-06-20T13:57:55.018Z,56.00
2019-06-20T14:00:24.975Z,56.20
2019-06-20T14:02:54.118Z,56.60
2019-06-20T14:05:22.960Z,57.60
2019-06-20T14:07:55.440Z,60.10
2019-06-20T14:10:22.993Z,58.90
2019-06-20T14:12:51.902Z,61.70
2019-06-20T14:15:23.940Z,66.00
2019-06-20T14:17:53.685Z,65.20
2019-06-20T14:20:22.765Z,68.70
2019-06-20T14:22:52.242Z,71.10
2019-06-20T14:25:21.345Z,76.40
2019-06-20T14:27:51.625Z,78.90
2019-06-20T14:30:21.137Z,81.70
2019-06-20T14:32:51.291Z,83.90
2019-06-20T14:35:21.126Z,83.20
2019-06-20T14:37:51.679Z,84.00
2019-06-20T14:40:21.076Z,85.20
2019-06-20T14:42:50.376Z,87.30
2019-06-20T14:45:19.888Z,88.00
2019-06-20T14:47:48.862Z,87.90
2019-06-20T14:50:17.835Z,88.80
2019-06-20T14:52:48.526Z,87.10
2019-06-20T14:55:17.853Z,88.60
2019-06-20T14:57:48.524Z,88.20
2019-06-20T15:00:18.635Z,88.30
2019-06-20T15:02:51.810Z,88.00
2019-06-20T15:05:19.465Z,86.60
2019-06-20T15:07:49.578Z,86.30
2019-06-20T15:10:19.534Z,86.10
2019-06-20T15:12:51.349Z,83.70
2019-06-20T15:15:19.167Z,83.10
2019-06-20T15:17:50.274Z,85.50
2019-06-20T15:20:18.824Z,83.80
2019-06-20T15:22:49.307Z,81.10
2019-06-20T15:25:19.103Z,84.90
2019-06-20T15:27:50.251Z,84.60
2019-06-20T15:30:19.629Z,84.60
2019-06-20T15:33:01.120Z,83.60
2019-06-20T15:35:19.169Z,82.50
2019-06-20T15:37:49.733Z,81.70
2019-06-20T15:40:19.289Z,83.10
2019-06-20T15:42:53.524Z,85.40
2019-06-20T15:45:22.839Z,84.90
2019-06-20T15:47:51.741Z,85.10
2019-06-20T15:50:21.148Z,85.00
2019-06-20T15:52:50.039Z,83.70
2019-06-20T15:55:21.675Z,84.70
2019-06-20T15:57:54.328Z,84.30
2019-06-20T16:00:28.557Z,83.60
2019-06-20T16:03:09.534Z,83.60
2019-06-20T16:05:28.111Z,82.20
2019-06-20T16:08:01.946Z,83.50
2019-06-20T16:10:32.961Z,82.60
2019-06-20T16:13:04.845Z,81.40
2019-06-20T16:15:35.637Z,77.90
2019-06-20T16:18:05.839Z,75.80
2019-06-20T16:20:36.390Z,76.10
2019-06-20T16:23:06.451Z,72.20
2019-06-20T16:25:36.535Z,71.70
2019-06-20T16:28:05.454Z,68.90
2019-06-20T16:30:34.368Z,68.60
2019-06-20T16:33:04.443Z,67.80
2019-06-20T16:35:37.002Z,67.40
2019-06-20T16:38:08.026Z,69.50
2019-06-20T16:40:46.694Z,72.30
2019-06-20T16:43:17.318Z,72.20
2019-06-20T16:45:50.014Z,71.00
2019-06-20T16:48:20.654Z,72.30
2019-06-20T16:50:51.588Z,71.00
2019-06-20T16:53:21.726Z,71.20
2019-06-20T16:55:52.083Z,70.40
2019-06-20T16:58:22.705Z,69.50
2019-06-20T17:00:54.478Z,68.20
2019-06-20T17:03:41.092Z,67.60
2019-06-20T17:06:02.956Z,66.50
2019-06-20T17:08:31.711Z,68.10
2019-06-20T17:11:02.912Z,68.30
2019-06-20T17:13:34.130Z,68.70
2019-06-20T17:16:03.332Z,70.50
2019-06-20T17:18:34.289Z,72.80
2019-06-20T17:21:03.205Z,73.90
2019-06-20T17:23:32.063Z,73.80
2019-06-20T17:26:01.656Z,74.30
2019-06-20T17:28:30.669Z,73.40
2019-06-20T17:30:59.593Z,73.80
2019-06-20T17:33:28.478Z,73.50
2019-06-20T17:35:57.401Z,73.90
2019-06-20T17:38:26.299Z,73.20
2019-06-20T17:40:55.184Z,72.30
2019-06-20T17:43:24.042Z,72.40
2019-06-20T17:45:52.960Z,72.60
2019-06-20T17:48:21.836Z,73.80
2019-06-20T17:50:50.738Z,74.40
2019-06-20T17:53:19.856Z,73.90
2019-06-20T17:55:48.729Z,74.30
2019-06-20T18:01:14.103Z,74.20
2019-06-20T18:03:44.433Z,74.70
2019-06-20T18:06:16.835Z,75.90
2019-06-20T18:08:47.857Z,75.60
2019-06-20T18:11:16.772Z,76.20
2019-06-20T18:13:45.639Z,76.20
2019-06-20T18:16:24.536Z,75.90
2019-06-20T18:18:45.197Z,75.60
2019-06-20T18:21:14.061Z,76.00
2019-06-20T18:23:42.979Z,75.00
2019-06-20T18:26:11.867Z,74.70
2019-06-20T18:28:40.782Z,74.50
2019-06-20T18:31:09.651Z,75.00
2019-06-20T18:33:38.563Z,74.70
2019-06-20T18:36:07.449Z,75.30
2019-06-20T18:38:36.354Z,76.30
2019-06-20T18:41:05.232Z,76.00
2019-06-20T18:43:34.298Z,75.80
2019-06-20T18:46:03.323Z,75.40
2019-06-20T18:48:32.491Z,75.70
2019-06-20T18:51:06.910Z,76.30
2019-06-20T18:53:57.594Z,75.80
2019-06-20T18:56:26.115Z,77.30
2019-06-20T18:59:03.324Z,76.90
2019-06-20T19:01:33.371Z,76.60
2019-06-20T19:04:02.405Z,77.30
2019-06-20T19:06:35.968Z,78.00
2019-06-20T19:09:01.994Z,77.90
2019-06-20T19:11:30.868Z,78.70
2019-06-20T19:13:59.808Z,78.80
2019-06-20T19:16:28.710Z,78.50
2019-06-20T19:18:57.650Z,78.90
2019-06-20T19:21:27.868Z,79.60
2019-06-20T19:23:56.977Z,80.20
2019-06-20T19:26:25.850Z,79.90
2019-06-20T19:28:54.764Z,80.10
2019-06-20T19:31:24.213Z,80.00
2019-06-20T19:33:53.320Z,80.20
2019-06-20T19:36:22.345Z,80.00
2019-06-20T19:38:51.423Z,80.20
2019-06-20T19:41:20.282Z,80.20
2019-06-20T19:43:49.268Z,80.20
2019-06-20T19:46:18.336Z,80.10
2019-06-20T19:48:47.307Z,79.90
2019-06-20T19:51:16.209Z,80.10
2019-06-20T19:53:46.022Z,80.10
2019-06-20T19:56:15.197Z,81.00
2019-06-20T19:58:45.276Z,81.20
2019-06-20T20:01:14.168Z,81.20
2019-06-20T20:03:43.065Z,80.90
2019-06-20T20:06:11.939Z,80.70
2019-06-20T20:08:40.956Z,80.90
2019-06-20T20:11:09.829Z,81.00
2019-06-20T20:13:38.775Z,81.50
2019-06-20T20:16:07.609Z,81.70
2019-06-20T20:18:36.517Z,82.00
2019-06-20T20:21:05.397Z,82.50
2019-06-20T20:23:34.363Z,82.50
2019-06-20T20:26:03.234Z,82.30
2019-06-20T20:28:32.143Z,82.40
2019-06-20T20:31:01.089Z,82.10
2019-06-20T20:33:30.044Z,82.40
2019-06-20T20:36:01.785Z,82.30
2019-06-20T20:38:29.603Z,82.70
2019-06-20T20:40:58.449Z,83.20
2019-06-20T20:43:27.392Z,82.40
2019-06-20T20:45:56.317Z,82.80
2019-06-20T20:48:25.175Z,83.10
2019-06-20T20:50:54.095Z,83.10
2019-06-20T20:53:23.054Z,83.80
2019-06-20T20:55:51.961Z,83.30
2019-06-20T20:58:20.892Z,83.30
2019-06-20T21:00:55.533Z,83.80
2019-06-20T21:03:24.425Z,83.50
2019-06-20T21:05:53.339Z,83.80
2019-06-20T21:08:22.201Z,83.70
2019-06-20T21:10:51.118Z,83.70
2019-06-20T21:13:19.986Z,83.70
2019-06-20T21:15:48.890Z,84.00
2019-06-20T21:18:17.766Z,84.50
2019-06-20T21:20:46.777Z,84.10
2019-06-20T21:23:15.657Z,84.50
2019-06-20T21:25:44.550Z,83.90
2019-06-20T21:28:13.432Z,83.70
2019-06-20T21:30:42.343Z,83.80
2019-06-20T21:33:11.219Z,83.90
2019-06-20T21:35:40.251Z,84.30
2019-06-20T21:38:09.096Z,85.30
2019-06-20T21:40:38.012Z,84.90
2019-06-20T21:43:06.869Z,85.00
2019-06-20T21:45:35.832Z,84.70
2019-06-20T21:48:05.100Z,84.70
2019-06-20T21:50:34.024Z,84.80
2019-06-20T21:53:02.889Z,85.00
2019-06-20T21:55:31.810Z,85.40
2019-06-20T21:58:00.695Z,85.00
2019-06-20T22:00:41.935Z,85.00
2019-06-20T22:03:11.424Z,84.80
2019-06-20T22:05:40.525Z,85.10
2019-06-20T22:08:09.589Z,85.70
2019-06-20T22:10:38.601Z,85.30
2019-06-20T22:13:07.660Z,85.30
2019-06-20T22:15:36.706Z,85.40
2019-06-20T22:18:05.898Z,85.30
2019-06-20T22:20:34.895Z,85.40
2019-06-20T22:23:03.785Z,85.30
2019-06-20T22:25:32.677Z,85.40
2019-06-20T22:28:02.945Z,85.60
2019-06-20T22:30:52.914Z,85.40
2019-06-20T22:33:22.178Z,85.30
2019-06-20T22:35:51.090Z,85.50
2019-06-20T22:38:19.966Z,85.40
2019-06-20T22:40:48.925Z,86.50
2019-06-20T22:43:17.946Z,86.00
2019-06-20T22:45:46.957Z,86.90
2019-06-20T22:48:15.842Z,87.20
2019-06-20T22:50:44.715Z,86.80
2019-06-20T22:53:13.619Z,86.80
2019-06-20T22:55:42.496Z,86.70
2019-06-20T22:58:11.471Z,86.60
2019-06-20T23:00:40.575Z,86.40
2019-06-20T23:03:09.591Z,86.50
2019-06-20T23:05:38.470Z,87.00
2019-06-20T23:08:07.397Z,86.30
2019-06-20T23:10:36.265Z,86.90
2019-06-20T23:13:05.486Z,87.00
2019-06-20T23:15:34.344Z,86.80
2019-06-20T23:18:03.252Z,86.40
2019-06-20T23:20:32.137Z,86.70
2019-06-20T23:23:01.041Z,86.50
2019-06-20T23:25:29.926Z,86.60
2019-06-20T23:27:58.847Z,86.60
2019-06-20T23:30:27.825Z,87.10
2019-06-20T23:32:56.740Z,86.60
2019-06-20T23:35:25.605Z,87.10
2019-06-20T23:37:54.516Z,86.90
2019-06-20T23:40:23.396Z,86.60
2019-06-20T23:42:52.295Z,86.90
2019-06-20T23:45:21.458Z,86.80
2019-06-20T23:47:50.363Z,86.90
2019-06-20T23:50:19.271Z,86.70
2019-06-20T23:53:00.349Z,86.50
2019-06-20T23:55:29.237Z,86.50
2019-06-20T23:57:58.161Z,86.90
